Главная страница
METAR-TAF:

METAR-TAF

Аэропорты :

Миккели, Финляндия

широта: 61-44N, долгота: 027-18E, высота над уровнем моря: 138 м

Текущие метеонаблюдения

Эта сводка был подготовлена 38 минут назад, в 06:20 UTC
Ветер 7 Узел от западный, изменяющийся между юго-западный и северо-западный
Температура 13°C
Влажность 77%
Давление 994 hPa
Видимость 10 км и более
Нет облачности ниже 1500 м, и нет кучево-дождевой облачности

METAR: EFMI 270620Z AUTO 28007KT 230V320 CAVOK 13/09 Q0994

Время: 09:58 (06:58 UTC)


TAF: отсутствует

Метеонаблюдения и прогнозы для более 4000 аэропортов (сводки METAR и TAF).

Имеющиеся станции представлены на карте желтыми и красными точками.

Чтобы увидеть название станции, наведите на нее мышь.

Затем щелкните, чтобы увидеть метеонаблюдения и метеопрогнозы.

Управление картой: чтобы увеличить масштаб, щелкните зеленые кнопки с черным крестиком; чтобы уменьшить масштаб, щелкните зеленую кнопку с тире; для просмотра соседних карт щелкайте зеленые стрелки.


METAR-TAF: